Time;durP1;ratioP1;P1;durP2;ratioP2;P2;SDS_P1;SDS_P2;PMS_P1;PMS_P2;Temp;Humidity;BMP_temperature;BMP_pressure;BME280_temperature;BME280_humidity;BME280_pressure;Samples;Min_cycle;Max_cycle;Signal;HPM_P1;HPM_P2
2023/04/10 00:00:08;;;;;;;40.42;25.92;;;;;;;5.02;100.00;102436.56;4990624;28;20174;-48
2023/04/10 00:02:34;;;;;;;44.40;26.35;;;;;;;5.01;100.00;102440.06;4990169;28;20242;-43
2023/04/10 00:05:00;;;;;;;41.05;25.67;;;;;;;4.99;100.00;102437.41;4995276;28;20583;-43
2023/04/10 00:07:26;;;;;;;48.80;27.20;;;;;;;4.94;100.00;102434.72;4994817;28;20197;-44
2023/04/10 00:09:51;;;;;;;44.25;26.55;;;;;;;4.92;100.00;102427.59;4994432;28;20161;-44
2023/04/10 00:12:17;;;;;;;41.40;25.42;;;;;;;4.91;100.00;102426.69;4994872;28;20257;-48
2023/04/10 00:14:42;;;;;;;39.60;26.00;;;;;;;4.92;100.00;102430.25;4994373;28;20193;-46
2023/04/10 00:17:08;;;;;;;42.70;25.77;;;;;;;4.89;100.00;102425.78;4994379;28;20247;-45
2023/04/10 00:19:34;;;;;;;46.58;24.25;;;;;;;4.92;100.00;102416.97;4994828;28;20169;-46
2023/04/10 00:22:00;;;;;;;42.75;26.13;;;;;;;4.87;100.00;102424.00;5000031;28;20263;-47
2023/04/10 00:24:25;;;;;;;45.13;27.58;;;;;;;4.90;100.00;102429.34;5014191;28;20220;-44
2023/04/10 00:26:51;;;;;;;41.53;26.15;;;;;;;4.88;100.00;102421.34;5014051;28;20169;-43
2023/04/10 00:29:17;;;;;;;45.63;26.15;;;;;;;4.85;100.00;102431.94;5004893;28;20650;-43
2023/04/10 00:31:42;;;;;;;45.33;26.02;;;;;;;4.84;100.00;102421.31;5010895;28;20270;-43
2023/04/10 00:34:08;;;;;;;44.20;25.33;;;;;;;4.86;100.00;102411.59;5013615;28;20311;-48
2023/04/10 00:36:34;;;;;;;47.42;25.60;;;;;;;4.83;100.00;102415.13;5014199;28;20550;-44
2023/04/10 00:39:00;;;;;;;41.50;26.98;;;;;;;4.81;100.00;102419.50;5000656;28;20563;-43
2023/04/10 00:41:26;;;;;;;42.72;26.10;;;;;;;4.83;100.00;102417.78;4993789;28;20174;-44
2023/04/10 00:43:56;;;;;;;41.38;25.67;;;;;;;4.84;100.00;102429.28;4994206;28;20165;-43
2023/04/10 00:46:22;;;;;;;46.33;26.63;;;;;;;4.89;100.00;102422.25;5005929;28;20189;-44
2023/04/10 00:48:49;;;;;;;40.70;25.95;;;;;;;4.89;100.00;102417.81;4973358;28;20217;-42
2023/04/10 00:51:15;;;;;;;41.47;25.75;;;;;;;4.86;100.00;102424.88;4973442;28;20324;-47
2023/04/10 00:53:40;;;;;;;46.78;25.92;;;;;;;4.85;100.00;102417.75;4974330;28;20257;-43
2023/04/10 00:56:06;;;;;;;39.70;26.27;;;;;;;4.83;100.00;102416.84;4989352;28;20186;-42
2023/04/10 00:58:32;;;;;;;42.63;26.42;;;;;;;4.82;100.00;102415.09;4974482;28;20213;-44
2023/04/10 01:00:57;;;;;;;36.67;25.05;;;;;;;4.82;100.00;102410.66;4983534;28;20640;-45
2023/04/10 01:03:24;;;;;;;41.35;26.83;;;;;;;4.85;100.00;102416.00;4996044;28;20186;-46
2023/04/10 01:05:55;;;;;;;50.13;29.25;;;;;;;4.83;100.00;102417.78;4991247;28;20617;-46
2023/04/10 01:09:02;;;;;;;46.70;28.50;;;;;;;4.79;100.00;102418.59;5001262;28;20201;-45
2023/04/10 01:11:51;;;;;;;41.38;26.90;;;;;;;4.81;100.00;102415.94;4986655;28;20196;-44
2023/04/10 01:14:47;;;;;;;43.95;25.60;;;;;;;4.80;100.00;102407.09;5006470;28;20699;-46
2023/04/10 01:17:20;;;;;;;45.92;27.55;;;;;;;4.79;100.00;102413.28;4998460;28;20215;-44
2023/04/10 01:20:08;;;;;;;43.45;27.55;;;;;;;4.79;100.00;102402.69;5003017;28;20208;-45
2023/04/10 01:22:40;;;;;;;42.53;26.25;;;;;;;4.79;100.00;102410.66;4996263;28;20193;-44
2023/04/10 01:25:17;;;;;;;46.55;27.75;;;;;;;4.78;100.00;102407.97;4995999;28;20627;-47
2023/04/10 01:28:03;;;;;;;39.67;25.15;;;;;;;4.82;100.00;102400.03;4992394;28;20208;-45
2023/04/10 01:30:34;;;;;;;42.75;27.23;;;;;;;4.83;100.00;102400.91;4998847;28;20199;-46
2023/04/10 01:33:01;;;;;;;43.45;26.33;;;;;;;4.80;100.00;102399.13;4990731;28;20178;-46
2023/04/10 01:35:30;;;;;;;44.42;27.27;;;;;;;4.78;100.00;102397.34;5007162;28;20680;-47
2023/04/10 01:37:59;;;;;;;40.40;25.98;;;;;;;4.75;100.00;102393.78;4984151;28;20209;-45
2023/04/10 01:40:28;;;;;;;44.70;26.60;;;;;;;4.78;100.00;102406.19;4996163;28;20195;-46
2023/04/10 01:42:55;;;;;;;43.15;26.55;;;;;;;4.79;100.00;102402.69;4993010;28;20185;-44
2023/04/10 01:45:30;;;;;;;40.00;26.48;;;;;;;4.80;100.00;102399.13;5014890;28;20572;-46
2023/04/10 01:47:56;;;;;;;41.53;26.42;;;;;;;4.78;100.00;102398.22;5002778;28;20193;-42
2023/04/10 01:50:23;;;;;;;40.20;26.08;;;;;;;4.74;100.00;102394.66;4997481;28;20192;-41
2023/04/10 01:52:52;;;;;;;41.70;27.40;;;;;;;4.77;100.00;102395.53;4997443;28;20181;-42
2023/04/10 01:55:22;;;;;;;46.88;27.10;;;;;;;4.72;100.00;102395.50;4999084;28;20271;-42
2023/04/10 01:57:55;;;;;;;42.35;26.30;;;;;;;4.74;100.00;102385.78;4990555;28;20216;-41
2023/04/10 02:00:22;;;;;;;42.35;25.48;;;;;;;4.71;100.00;102386.66;4997044;28;20196;-42
2023/04/10 02:02:48;;;;;;;41.70;26.42;;;;;;;4.71;100.00;102375.13;4988247;28;20177;-42
2023/04/10 02:05:15;;;;;;;41.80;26.17;;;;;;;4.68;100.00;102381.31;4991214;28;20177;-43
2023/04/10 02:08:04;;;;;;;39.40;25.55;;;;;;;4.66;100.00;102380.41;5002308;28;20200;-42
2023/04/10 02:10:51;;;;;;;42.50;25.60;;;;;;;4.67;100.00;102370.66;5009320;28;20275;-43
2023/04/10 02:13:20;;;;;;;41.08;26.38;;;;;;;4.67;100.00;102365.34;4998675;28;20174;-41
2023/04/10 02:15:50;;;;;;;36.47;25.70;;;;;;;4.66;100.00;102363.59;5017318;28;20687;-43
2023/04/10 02:18:19;;;;;;;35.88;24.92;;;;;;;4.67;100.00;102357.41;4999341;28;20197;-43
2023/04/10 02:20:45;;;;;;;43.13;25.20;;;;;;;4.65;100.00;102362.69;5002884;28;20180;-42
2023/04/10 02:23:13;;;;;;;42.72;25.88;;;;;;;4.68;100.00;102348.53;4995382;28;20190;-43
2023/04/10 02:25:38;;;;;;;42.90;26.17;;;;;;;4.66;100.00;102351.19;4995595;28;20224;-42
2023/04/10 02:28:05;;;;;;;35.60;25.23;;;;;;;4.67;100.00;102344.13;4992715;28;20605;-44
2023/04/10 02:30:32;;;;;;;37.80;24.88;;;;;;;4.68;100.00;102335.25;4994599;28;20181;-42
2023/04/10 02:32:58;;;;;;;45.63;25.92;;;;;;;4.74;100.00;102333.59;4997538;28;20184;-44
2023/04/10 02:35:25;;;;;;;37.38;25.45;;;;;;;4.71;100.00;102340.63;4990212;28;20251;-41
2023/04/10 02:37:50;;;;;;;40.00;25.13;;;;;;;4.68;100.00;102324.66;4992941;28;20299;-42
2023/04/10 02:40:17;;;;;;;36.72;24.67;;;;;;;4.67;100.00;102329.06;5001127;28;20173;-42
2023/04/10 02:43:01;;;;;;;40.53;25.48;;;;;;;4.68;100.00;102322.00;5005634;28;20870;-41
2023/04/10 02:45:27;;;;;;;36.90;24.40;;;;;;;4.70;100.00;102315.84;4997960;28;20188;-41
2023/04/10 02:47:52;;;;;;;39.72;26.02;;;;;;;4.64;100.00;102321.09;4988359;28;20211;-42
2023/04/10 02:50:18;;;;;;;38.35;25.75;;;;;;;4.71;100.00;102311.44;4988451;28;20268;-42
2023/04/10 02:52:45;;;;;;;40.05;24.17;;;;;;;4.67;100.00;102318.47;4989567;28;20185;-42
2023/04/10 02:55:11;;;;;;;39.85;24.88;;;;;;;4.64;100.00;102302.50;5013532;28;20209;-43
2023/04/10 02:57:37;;;;;;;36.83;25.05;;;;;;;4.66;100.00;102313.16;4993807;28;20255;-41
2023/04/10 03:00:04;;;;;;;38.10;25.10;;;;;;;4.62;100.00;102311.34;5010603;28;20181;-42
2023/04/10 03:02:47;;;;;;;40.75;25.45;;;;;;;4.62;100.00;102309.56;4984208;28;20185;-45
2023/04/10 03:05:16;;;;;;;39.67;24.67;;;;;;;4.62;100.00;102296.28;4994334;28;20221;-42
2023/04/10 03:07:41;;;;;;;43.47;25.70;;;;;;;4.61;100.00;102304.22;4995983;28;20288;-42
2023/04/10 03:10:08;;;;;;;39.65;25.08;;;;;;;4.60;100.00;102302.47;4995356;28;20180;-43
2023/04/10 03:12:35;;;;;;;37.97;25.88;;;;;;;4.57;100.00;102290.06;4984139;28;20593;-43
2023/04/10 03:15:00;;;;;;;41.65;24.55;;;;;;;4.60;100.00;102286.53;4996231;28;20231;-42
2023/04/10 03:17:26;;;;;;;40.25;24.40;;;;;;;4.55;100.00;102283.84;4995652;28;20201;-41
2023/04/10 03:19:52;;;;;;;42.17;24.98;;;;;;;4.55;100.00;102291.81;4987919;28;20195;-42
2023/04/10 03:22:17;;;;;;;40.30;25.77;;;;;;;4.57;100.00;102279.44;4998086;28;20186;-42
2023/04/10 03:24:43;;;;;;;39.05;25.23;;;;;;;4.57;100.00;102274.13;4995014;28;20256;-43
2023/04/10 03:27:08;;;;;;;37.15;25.63;;;;;;;4.61;100.00;102281.22;4993379;28;20363;-42
2023/04/10 03:29:34;;;;;;;38.13;24.88;;;;;;;4.60;100.00;102274.16;5000873;28;20663;-43
2023/04/10 03:32:00;;;;;;;36.83;24.00;;;;;;;4.62;100.00;102258.25;4997833;28;20192;-43
2023/04/10 03:34:25;;;;;;;43.30;25.88;;;;;;;4.61;100.00;102257.34;5005791;28;20205;-43
2023/04/10 03:36:51;;;;;;;40.50;24.80;;;;;;;4.65;100.00;102264.44;4992337;28;20220;-42
2023/04/10 03:39:17;;;;;;;42.08;26.13;;;;;;;4.64;100.00;102264.47;4997068;28;20181;-43
2023/04/10 03:41:42;;;;;;;43.03;26.98;;;;;;;4.67;100.00;102257.41;4999934;28;20193;-42
2023/04/10 03:44:08;;;;;;;41.03;25.63;;;;;;;4.70;100.00;102261.84;5017974;28;20183;-43
2023/04/10 03:46:33;;;;;;;36.75;24.95;;;;;;;4.73;100.00;102269.84;4995333;28;20173;-42
2023/04/10 03:48:59;;;;;;;38.67;24.30;;;;;;;4.71;100.00;102268.94;5017693;28;20624;-43
2023/04/10 03:51:26;;;;;;;38.88;23.98;;;;;;;4.70;100.00;102269.81;4996969;28;20670;-44
2023/04/10 03:53:51;;;;;;;38.10;24.63;;;;;;;4.71;100.00;102266.28;5001714;28;20176;-41
2023/04/10 03:56:17;;;;;;;36.78;24.67;;;;;;;4.73;100.00;102268.06;4994578;28;20189;-43
2023/04/10 03:58:44;;;;;;;37.25;24.52;;;;;;;4.71;100.00;102268.94;4983184;28;20288;-43
2023/04/10 04:01:11;;;;;;;37.63;24.17;;;;;;;4.72;100.00;102260.09;4994853;28;20216;-43
2023/04/10 04:03:53;;;;;;;35.83;23.67;;;;;;;4.67;100.00;102262.69;5009253;28;20232;-43
2023/04/10 04:06:26;;;;;;;36.38;23.83;;;;;;;4.68;100.00;102261.84;5000215;28;20201;-43
2023/04/10 04:09:23;;;;;;;37.40;24.60;;;;;;;4.70;100.00;102273.38;4995999;28;20180;-43
2023/04/10 04:12:09;;;;;;;32.72;23.50;;;;;;;4.69;100.00;102268.03;4978064;28;20744;-42
2023/04/10 04:14:34;;;;;;;35.17;23.55;;;;;;;4.74;100.00;102263.66;4991427;28;20279;-43
2023/04/10 04:17:29;;;;;;;46.78;24.35;;;;;;;4.70;100.00;102268.06;4962959;28;20210;-45
2023/04/10 04:20:07;;;;;;;33.83;23.40;;;;;;;4.73;100.00;102261.88;4995058;28;20259;-42
2023/04/10 04:22:42;;;;;;;36.15;23.50;;;;;;;4.73;100.00;102256.56;4989546;28;20232;-42
2023/04/10 04:25:18;;;;;;;35.03;24.90;;;;;;;4.69;100.00;102253.00;4985471;28;20177;-44
2023/04/10 04:27:46;;;;;;;35.72;23.23;;;;;;;4.73;100.00;102259.22;4994943;28;20216;-44
2023/04/10 04:30:41;;;;;;;31.27;22.55;;;;;;;4.71;100.00;102242.41;4984771;28;20193;-44
2023/04/10 04:33:24;;;;;;;39.60;23.55;;;;;;;4.73;100.00;102251.25;4988967;28;20185;-42
2023/04/10 04:36:28;;;;;;;38.38;23.38;;;;;;;4.71;100.00;102243.28;4979665;28;20184;-43
2023/04/10 04:39:29;;;;;;;33.83;22.88;;;;;;;4.71;100.00;102255.66;4896371;29;20201;-44
2023/04/10 04:42:14;;;;;;;35.65;22.27;;;;;;;4.71;100.00;102256.56;4983398;28;20204;-42
2023/04/10 04:45:00;;;;;;;29.70;22.17;;;;;;;4.70;100.00;102251.22;5002037;28;20185;-44
2023/04/10 04:47:37;;;;;;;34.47;22.55;;;;;;;4.68;100.00;102253.88;5000059;28;20201;-43
2023/04/10 04:50:15;;;;;;;30.65;21.92;;;;;;;4.74;100.00;102261.00;5002592;28;20614;-43
2023/04/10 04:53:02;;;;;;;34.58;22.90;;;;;;;4.82;100.00;102253.13;5009766;28;20253;-42
2023/04/10 04:55:46;;;;;;;32.83;22.48;;;;;;;4.78;100.00;102254.84;4995605;28;20613;-42
2023/04/10 04:58:35;;;;;;;32.78;22.27;;;;;;;4.79;100.00;102258.38;4996707;28;20212;-43
2023/04/10 05:01:32;;;;;;;33.17;21.42;;;;;;;4.82;100.00;102254.00;4976620;28;20515;-42
2023/04/10 05:04:17;;;;;;;33.55;22.30;;;;;;;4.86;100.00;102249.59;5002750;28;20183;-41
2023/04/10 05:07:00;;;;;;;33.15;22.17;;;;;;;4.93;100.00;102251.44;5003950;28;20211;-44
2023/04/10 05:09:52;;;;;;;32.30;20.90;;;;;;;5.00;100.00;102257.69;4995881;28;20200;-43
2023/04/10 05:12:37;;;;;;;29.67;21.00;;;;;;;5.23;100.00;102253.44;4997931;28;20612;-42
2023/04/10 05:15:17;;;;;;;32.55;21.67;;;;;;;5.37;100.00;102254.38;4999121;28;20563;-43
2023/04/10 05:17:51;;;;;;;29.38;21.63;;;;;;;5.46;100.00;102256.22;4999450;28;20209;-41
2023/04/10 05:20:52;;;;;;;31.17;20.15;;;;;;;5.62;100.00;102246.56;4968546;28;20204;-43
2023/04/10 05:23:50;;;;;;;31.05;21.55;;;;;;;5.58;100.00;102239.47;4981460;28;20221;-41
2023/04/10 05:26:36;;;;;;;31.52;20.58;;;;;;;5.65;100.00;102245.69;5000977;28;20195;-41
2023/04/10 05:29:23;;;;;;;29.77;19.92;;;;;;;5.65;100.00;102230.63;4996693;28;20256;-42
2023/04/10 05:32:15;;;;;;;29.77;19.52;;;;;;;5.76;100.00;102234.22;4993365;28;20188;-42
2023/04/10 05:35:04;;;;;;;30.35;19.75;;;;;;;6.04;100.00;102223.72;4998603;28;20213;-44
2023/04/10 05:37:39;;;;;;;25.65;19.10;;;;;;;6.07;100.00;102221.06;4982451;28;20219;-41
2023/04/10 05:40:21;;;;;;;30.48;20.02;;;;;;;6.30;100.00;102218.47;4994975;28;20192;-41
2023/04/10 05:43:07;;;;;;;28.88;20.17;;;;;;;6.07;100.00;102209.53;4994680;28;20191;-42
2023/04/10 05:45:51;;;;;;;24.48;18.33;;;;;;;6.02;100.00;102208.63;5011154;28;20667;-43
2023/04/10 05:48:41;;;;;;;26.30;19.63;;;;;;;5.95;100.00;102216.59;4992878;28;20217;-41
2023/04/10 05:51:30;;;;;;;30.58;19.48;;;;;;;6.01;100.00;102212.16;4997993;28;20540;-42
2023/04/10 05:54:16;;;;;;;28.65;19.98;;;;;;;5.95;100.00;102216.59;4997085;28;20719;-41
2023/04/10 05:57:02;;;;;;;31.73;20.05;;;;;;;5.98;100.00;102210.38;4996463;28;20197;-41
2023/04/10 05:59:42;;;;;;;29.08;19.67;;;;;;;6.40;100.00;102196.28;5010715;28;20243;-41
2023/04/10 06:02:26;;;;;;;30.92;20.40;;;;;;;6.64;100.00;102197.19;5000259;28;20231;-43
2023/04/10 06:04:52;;;;;;;26.95;19.30;;;;;;;6.93;100.00;102185.59;4999095;28;20192;-42
2023/04/10 06:07:19;;;;;;;27.38;18.73;;;;;;;7.32;100.00;102192.63;5008413;28;20639;-42
2023/04/10 06:09:45;;;;;;;27.75;19.08;;;;;;;7.56;100.00;102188.13;5013736;28;20188;-43
2023/04/10 06:12:10;;;;;;;28.58;18.42;;;;;;;7.54;100.00;102174.81;5000313;28;20670;-42
2023/04/10 06:14:38;;;;;;;23.33;18.33;;;;;;;7.56;100.00;102172.13;4992421;28;20213;-42
2023/04/10 06:17:05;;;;;;;25.13;17.92;;;;;;;7.83;100.00;102161.31;5011824;28;20686;-43
2023/04/10 06:19:31;;;;;;;26.63;19.75;;;;;;;7.55;100.00;102165.03;5015412;28;20234;-42
2023/04/10 06:21:56;;;;;;;24.45;17.95;;;;;;;7.56;100.00;102154.31;4999199;28;20532;-42
2023/04/10 06:24:22;;;;;;;22.98;18.70;;;;;;;7.58;100.00;102160.53;4994312;28;20262;-42
2023/04/10 06:26:48;;;;;;;25.10;18.63;;;;;;;7.92;100.00;102160.38;4992882;28;20181;-41
2023/04/10 06:29:14;;;;;;;23.75;18.33;;;;;;;7.75;100.00;102147.13;4998690;28;20200;-42
2023/04/10 06:31:39;;;;;;;24.83;19.42;;;;;;;7.78;100.00;102132.88;4992677;28;20480;-42
2023/04/10 06:34:06;;;;;;;24.98;18.20;;;;;;;7.88;100.00;102134.63;4995384;28;20209;-40
2023/04/10 06:36:34;;;;;;;23.23;18.33;;;;;;;7.90;100.00;102135.50;5008611;28;20191;-42
2023/04/10 06:39:03;;;;;;;26.42;19.40;;;;;;;7.79;100.00;102130.22;5017503;28;20276;-41
2023/04/10 06:41:29;;;;;;;24.48;17.88;;;;;;;7.91;100.00;102117.69;5015437;28;20189;-41
2023/04/10 06:44:03;;;;;;;22.33;17.17;;;;;;;7.86;100.00;102123.06;4986643;28;20177;-42
2023/04/10 06:46:29;;;;;;;26.75;17.38;;;;;;;7.60;100.00;102126.75;4997434;28;20556;-39
2023/04/10 06:48:54;;;;;;;26.77;17.83;;;;;;;7.72;100.00;102123.16;4998701;28;20209;-42
2023/04/10 06:51:20;;;;;;;24.27;18.38;;;;;;;7.67;100.00;102113.38;4995773;28;20180;-41
2023/04/10 06:53:45;;;;;;;24.25;18.67;;;;;;;7.81;100.00;102116.88;4993922;28;20274;-42
2023/04/10 06:56:11;;;;;;;24.83;18.67;;;;;;;7.73;100.00;102114.25;4996211;28;20227;-43
2023/04/10 06:58:36;;;;;;;25.95;19.20;;;;;;;7.97;100.00;102118.53;5003063;28;20208;-41
2023/04/10 07:01:04;;;;;;;25.30;18.67;;;;;;;7.96;100.00;102124.78;5009866;23;20264;-47
2023/04/10 07:03:31;;;;;;;27.23;19.38;;;;;;;7.97;100.00;102115.00;4994667;28;20184;-47
2023/04/10 07:05:57;;;;;;;24.65;18.02;;;;;;;8.17;100.00;102117.50;5009190;28;20185;-45
2023/04/10 07:08:23;;;;;;;24.77;18.42;;;;;;;8.23;100.00;102115.69;4998247;28;20208;-47
2023/04/10 07:10:48;;;;;;;22.85;18.83;;;;;;;8.48;100.00;102107.47;4997375;28;20185;-45
2023/04/10 07:13:14;;;;;;;28.38;18.95;;;;;;;8.69;99.28;102111.75;4993796;28;20544;-45
2023/04/10 07:15:39;;;;;;;26.73;17.73;;;;;;;8.78;98.33;102098.28;4997133;28;20287;-46
2023/04/10 07:18:05;;;;;;;22.00;18.10;;;;;;;8.89;97.27;102108.88;4994627;28;20220;-46
2023/04/10 07:20:31;;;;;;;24.08;18.10;;;;;;;8.79;95.98;102099.16;4999225;28;20203;-44
2023/04/10 07:22:56;;;;;;;23.42;18.20;;;;;;;8.85;95.92;102096.44;4999357;28;20189;-46
2023/04/10 07:25:22;;;;;;;23.80;18.23;;;;;;;8.77;95.13;102087.66;5004477;28;20236;-47
2023/04/10 07:27:48;;;;;;;22.45;17.90;;;;;;;8.89;94.33;102098.19;4998254;28;20204;-47
2023/04/10 07:30:13;;;;;;;22.50;18.05;;;;;;;9.16;93.65;102088.97;4996252;28;20185;-46
2023/04/10 07:32:40;;;;;;;23.98;18.33;;;;;;;9.25;92.67;102093.31;4994836;28;20227;-46
2023/04/10 07:35:06;;;;;;;23.40;17.85;;;;;;;9.62;91.53;102096.41;4996047;28;20258;-47
2023/04/10 07:37:32;;;;;;;22.70;18.25;;;;;;;9.76;90.32;102084.63;4999001;28;20200;-47
2023/04/10 07:39:57;;;;;;;21.98;17.27;;;;;;;10.07;88.93;102069.81;4996813;28;20205;-47
2023/04/10 07:42:23;;;;;;;21.52;17.40;;;;;;;10.23;88.14;102064.22;4997254;28;20197;-45
2023/04/10 07:44:48;;;;;;;22.85;17.85;;;;;;;10.82;86.91;102069.44;5003876;28;20614;-47
2023/04/10 07:47:14;;;;;;;25.95;18.40;;;;;;;10.46;85.22;102063.88;4998520;28;20263;-46
2023/04/10 07:49:40;;;;;;;21.25;17.65;;;;;;;10.68;84.43;102050.94;4996328;28;20177;-46
2023/04/10 07:52:05;;;;;;;21.48;17.35;;;;;;;10.76;83.39;102050.78;4997645;28;20267;-45
2023/04/10 07:54:32;;;;;;;21.15;17.45;;;;;;;11.04;82.57;102041.31;5000651;28;20282;-47
2023/04/10 07:56:58;;;;;;;20.25;17.70;;;;;;;10.86;81.49;102030.94;4994053;28;20196;-47
2023/04/10 07:59:24;;;;;;;20.25;17.38;;;;;;;11.07;80.88;102034.97;4995600;28;20181;-47
2023/04/10 08:01:50;;;;;;;21.83;17.77;;;;;;;11.53;80.30;102032.16;4998900;28;20350;-46
2023/04/10 08:04:15;;;;;;;21.08;17.83;;;;;;;11.78;78.80;102020.84;4993866;28;20176;-47
2023/04/10 08:06:41;;;;;;;19.85;17.20;;;;;;;11.61;78.07;102005.16;4997294;28;20182;-46
2023/04/10 08:09:06;;;;;;;20.30;16.42;;;;;;;11.63;76.85;102002.41;5005944;28;20216;-45
2023/04/10 08:11:34;;;;;;;19.35;15.93;;;;;;;11.69;76.09;101996.91;4999426;28;20180;-47
2023/04/10 08:14:01;;;;;;;18.92;16.55;;;;;;;11.98;75.49;101989.97;4996274;28;20644;-47
2023/04/10 08:16:31;;;;;;;19.98;16.73;;;;;;;11.95;74.46;101994.50;5005104;28;20605;-46
2023/04/10 08:18:58;;;;;;;18.83;15.65;;;;;;;12.34;74.44;101983.63;4995569;28;20513;-47
2023/04/10 08:21:25;;;;;;;20.75;17.15;;;;;;;12.56;73.48;101983.91;4996553;28;20194;-46
2023/04/10 08:23:52;;;;;;;18.17;16.20;;;;;;;12.83;73.03;101973.28;5000476;28;20212;-44
2023/04/10 08:26:21;;;;;;;21.40;16.73;;;;;;;12.80;72.16;101968.00;5004297;28;20224;-47
2023/04/10 08:28:49;;;;;;;17.60;15.63;;;;;;;12.22;71.59;101950.81;5007123;28;20239;-46
2023/04/10 08:31:18;;;;;;;18.25;16.00;;;;;;;12.31;71.52;101948.78;4999672;28;20215;-44
2023/04/10 08:33:44;;;;;;;18.80;16.77;;;;;;;12.30;71.64;101963.13;5000978;28;20185;-47
2023/04/10 08:36:14;;;;;;;18.13;16.17;;;;;;;12.41;71.15;101952.09;4998981;28;20227;-44
2023/04/10 08:38:41;;;;;;;17.30;15.27;;;;;;;12.73;70.87;101950.31;5001828;28;20607;-45
2023/04/10 08:41:13;;;;;;;19.02;15.75;;;;;;;12.62;69.97;101941.66;4999902;28;20193;-45
2023/04/10 08:43:38;;;;;;;16.73;14.85;;;;;;;12.49;69.72;101935.75;4999470;28;20181;-46
2023/04/10 08:46:05;;;;;;;18.67;16.33;;;;;;;12.47;69.09;101933.09;4998499;28;20165;-45
2023/04/10 08:48:45;;;;;;;17.50;15.63;;;;;;;12.48;69.82;101952.78;4997132;28;20208;-45
2023/04/10 08:51:16;;;;;;;17.42;15.13;;;;;;;12.84;69.69;101937.41;5009352;28;20172;-46
2023/04/10 08:53:43;;;;;;;22.73;16.48;;;;;;;12.89;69.37;101929.19;5000258;28;20208;-45
2023/04/10 08:56:12;;;;;;;18.08;16.13;;;;;;;13.09;68.43;101924.06;4998951;28;20271;-45
2023/04/10 08:58:38;;;;;;;18.73;16.10;;;;;;;13.53;68.38;101913.72;5003166;28;20757;-46
2023/04/10 09:01:05;;;;;;;18.58;16.20;;;;;;;13.49;67.24;101904.00;5000395;28;20192;-46
2023/04/10 09:03:31;;;;;;;18.73;16.73;;;;;;;13.45;67.18;101902.34;5005253;28;20321;-45
2023/04/10 09:06:01;;;;;;;17.67;15.35;;;;;;;13.47;66.88;101894.19;5005090;28;20181;-47
2023/04/10 09:08:28;;;;;;;18.98;16.70;;;;;;;13.87;67.22;101903.63;5000638;28;20324;-45
2023/04/10 09:10:53;;;;;;;18.98;16.17;;;;;;;13.41;67.13;101892.59;5000941;28;20775;-47
2023/04/10 09:13:35;;;;;;;20.23;16.85;;;;;;;13.37;67.33;101889.13;4999512;28;20180;-45
2023/04/10 09:16:02;;;;;;;18.30;16.50;;;;;;;13.41;67.59;101891.72;5015609;28;20228;-45
2023/04/10 09:18:42;;;;;;;20.00;16.27;;;;;;;13.59;67.25;101880.34;4997674;28;20640;-46
2023/04/10 09:21:10;;;;;;;20.17;16.02;;;;;;;14.00;66.14;101870.81;5001505;28;20169;-50
2023/04/10 09:23:35;;;;;;;16.55;14.70;;;;;;;13.66;64.60;101854.94;5007078;28;20256;-46
2023/04/10 09:26:20;;;;;;;16.48;14.60;;;;;;;13.76;64.57;101842.94;5000728;28;20681;-47
2023/04/10 09:29:18;;;;;;;18.50;15.23;;;;;;;14.02;64.30;101841.13;5001702;28;20702;-47
2023/04/10 09:31:44;;;;;;;17.90;15.50;;;;;;;14.26;64.29;101833.94;4991870;28;20197;-48
2023/04/10 09:34:18;;;;;;;17.27;15.57;;;;;;;14.60;63.06;101824.59;4998961;28;20213;-48
2023/04/10 09:36:53;;;;;;;17.90;15.25;;;;;;;15.29;63.13;101826.31;5000462;28;20181;-47
2023/04/10 09:39:20;;;;;;;17.02;14.60;;;;;;;15.54;61.72;101808.09;5003077;28;20192;-46
2023/04/10 09:41:55;;;;;;;15.45;13.95;;;;;;;15.68;61.40;101801.22;4998933;28;20191;-48
2023/04/10 09:44:30;;;;;;;17.30;15.52;;;;;;;14.66;60.28;101780.31;4997907;28;20204;-46
2023/04/10 09:46:57;;;;;;;16.27;14.68;;;;;;;14.70;61.03;101774.75;4999194;28;20176;-46
2023/04/10 09:49:22;;;;;;;17.00;15.10;;;;;;;15.10;60.65;101775.78;5000338;28;20230;-48
2023/04/10 09:51:48;;;;;;;17.15;15.32;;;;;;;14.95;60.01;101753.00;4996137;28;20197;-46
2023/04/10 09:54:14;;;;;;;17.00;15.30;;;;;;;14.70;59.87;101755.84;4999376;28;20213;-47
2023/04/10 09:56:40;;;;;;;15.90;14.27;;;;;;;14.47;59.35;101732.47;5001655;28;20252;-49
2023/04/10 09:59:06;;;;;;;15.63;13.88;;;;;;;14.98;59.57;101746.63;5007234;28;20215;-47
2023/04/10 10:01:35;;;;;;;17.08;15.38;;;;;;;14.70;60.02;101747.75;4996057;28;20196;-47
2023/04/10 10:04:03;;;;;;;16.02;14.32;;;;;;;14.95;60.61;101744.91;4994120;28;20546;-46
2023/04/10 10:06:32;;;;;;;18.05;16.15;;;;;;;14.60;60.85;101740.97;4997926;28;20212;-45
2023/04/10 10:09:03;;;;;;;16.95;13.90;;;;;;;15.01;60.03;101730.28;4998463;28;20197;-48
2023/04/10 10:11:32;;;;;;;16.75;15.07;;;;;;;14.66;59.43;101724.53;5000501;28;20208;-45
2023/04/10 10:14:00;;;;;;;16.63;15.02;;;;;;;14.53;59.69;101712.47;5007502;28;20173;-47
2023/04/10 10:16:42;;;;;;;16.65;14.95;;;;;;;15.06;59.70;101714.78;4998260;28;20189;-47
2023/04/10 10:19:22;;;;;;;16.38;14.68;;;;;;;15.00;59.41;101704.25;4996682;28;20710;-45
2023/04/10 10:21:50;;;;;;;17.00;15.20;;;;;;;14.85;59.15;101700.38;4995970;28;20653;-45
2023/04/10 10:24:18;;;;;;;15.50;13.75;;;;;;;14.70;58.59;101680.31;5007798;28;20196;-47
2023/04/10 10:26:46;;;;;;;14.20;12.70;;;;;;;15.47;58.36;101685.09;5001185;28;20184;-47
2023/04/10 10:29:16;;;;;;;15.13;13.63;;;;;;;15.68;56.87;101666.13;4997913;28;20201;-47
2023/04/10 10:31:42;;;;;;;14.73;13.32;;;;;;;15.64;56.81;101660.00;4995751;28;20182;-45
2023/04/10 10:34:08;;;;;;;15.00;13.50;;;;;;;15.31;56.46;101659.72;4999707;28;20698;-45
2023/04/10 10:36:35;;;;;;;15.32;13.82;;;;;;;15.54;57.23;101664.94;5006987;28;20222;-47
2023/04/10 10:39:09;;;;;;;14.63;13.20;;;;;;;15.59;56.64;101644.03;4996108;28;20295;-48
2023/04/10 10:41:48;;;;;;;14.90;13.43;;;;;;;15.11;55.55;101634.50;4999440;28;20184;-45
2023/04/10 10:44:20;;;;;;;14.25;12.77;;;;;;;15.39;55.65;101626.03;5003431;28;20698;-47
2023/04/10 10:47:14;;;;;;;14.20;12.70;;;;;;;15.84;55.73;101619.44;4998351;28;20546;-45
2023/04/10 10:49:57;;;;;;;14.30;12.90;;;;;;;15.92;55.22;101623.59;4995924;28;20199;-45
2023/04/10 10:52:43;;;;;;;13.70;12.38;;;;;;;16.03;54.62;101608.63;4996527;28;20215;-46
2023/04/10 10:55:24;;;;;;;13.82;12.52;;;;;;;16.16;54.40;101603.50;4998493;28;20527;-47
2023/04/10 10:57:51;;;;;;;14.70;13.20;;;;;;;15.64;54.24;101582.53;4999055;28;20223;-46
2023/04/10 11:00:17;;;;;;;13.45;12.15;;;;;;;15.71;53.92;101575.06;4998588;28;20232;-46
2023/04/10 11:02:43;;;;;;;13.35;11.98;;;;;;;15.65;53.76;101565.41;4997811;28;20192;-47
2023/04/10 11:05:08;;;;;;;12.88;11.57;;;;;;;15.89;53.75;101565.19;4995279;28;20209;-46
2023/04/10 11:07:57;;;;;;;12.88;11.68;;;;;;;16.19;53.26;101551.97;4998418;28;20324;-47
2023/04/10 11:11:09;;;;;;;13.13;11.88;;;;;;;16.39;53.07;101541.97;4969707;28;20667;-46
2023/04/10 11:13:40;;;;;;;12.45;11.23;;;;;;;16.01;52.28;101521.34;5000344;28;20168;-45
2023/04/10 11:16:11;;;;;;;12.65;11.45;;;;;;;16.54;51.69;101524.97;4999828;28;20745;-48
2023/04/10 11:18:49;;;;;;;11.27;10.15;;;;;;;16.19;50.13;101480.81;4996019;28;20231;-47
2023/04/10 11:21:19;;;;;;;11.45;10.35;;;;;;;16.24;50.71;101482.31;4997156;28;20698;-47
2023/04/10 11:23:57;;;;;;;10.88;9.77;;;;;;;16.20;50.64;101499.66;4993760;28;20262;-47
2023/04/10 11:29:01;;;;;;;11.95;9.70;;;;;;;16.18;50.00;101465.53;4999711;28;20208;-46
2023/04/10 11:31:27;;;;;;;10.63;9.63;;;;;;;16.34;49.59;101458.38;5003585;28;20189;-48